sensor_id;sensor_type;location;lat;lon;timestamp;P1;durP1;ratioP1;P2;durP2;ratioP2
75744;SDS011;64359;51.366;-0.222;2023-04-06T00:00:26;3.80;;;3.50;;
75744;SDS011;64359;51.366;-0.222;2023-04-06T00:01:30;2.80;;;2.60;;
75744;SDS011;64359;51.366;-0.222;2023-04-06T00:02:34;3.40;;;2.80;;
75744;SDS011;64359;51.366;-0.222;2023-04-06T00:03:39;3.10;;;2.90;;
75744;SDS011;64359;51.366;-0.222;2023-04-06T00:04:43;2.90;;;2.70;;
75744;SDS011;64359;51.366;-0.222;2023-04-06T00:05:48;3.60;;;3.30;;
75744;SDS011;64359;51.366;-0.222;2023-04-06T00:06:52;2.80;;;2.60;;
75744;SDS011;64359;51.366;-0.222;2023-04-06T00:07:58;2.70;;;2.50;;
75744;SDS011;64359;51.366;-0.222;2023-04-06T00:09:02;2.70;;;2.50;;
75744;SDS011;64359;51.366;-0.222;2023-04-06T00:10:07;3.40;;;3.10;;
75744;SDS011;64359;51.366;-0.222;2023-04-06T00:11:13;2.70;;;2.50;;
75744;SDS011;64359;51.366;-0.222;2023-04-06T00:12:18;2.60;;;2.40;;
75744;SDS011;64359;51.366;-0.222;2023-04-06T00:13:22;2.70;;;2.50;;
75744;SDS011;64359;51.366;-0.222;2023-04-06T00:14:26;2.80;;;2.60;;
75744;SDS011;64359;51.366;-0.222;2023-04-06T00:15:31;2.70;;;2.50;;
75744;SDS011;64359;51.366;-0.222;2023-04-06T00:16:35;2.60;;;2.40;;
75744;SDS011;64359;51.366;-0.222;2023-04-06T00:17:40;2.10;;;2.00;;
75744;SDS011;64359;51.366;-0.222;2023-04-06T00:18:44;2.80;;;2.60;;
75744;SDS011;64359;51.366;-0.222;2023-04-06T00:19:49;2.50;;;2.30;;
75744;SDS011;64359;51.366;-0.222;2023-04-06T00:20:53;2.90;;;2.60;;
75744;SDS011;64359;51.366;-0.222;2023-04-06T00:21:58;2.30;;;2.20;;
75744;SDS011;64359;51.366;-0.222;2023-04-06T00:23:03;2.60;;;2.20;;
75744;SDS011;64359;51.366;-0.222;2023-04-06T00:24:08;2.70;;;2.20;;
75744;SDS011;64359;51.366;-0.222;2023-04-06T00:25:12;2.10;;;1.90;;
75744;SDS011;64359;51.366;-0.222;2023-04-06T00:26:16;2.80;;;2.40;;
75744;SDS011;64359;51.366;-0.222;2023-04-06T00:27:21;2.40;;;2.20;;
75744;SDS011;64359;51.366;-0.222;2023-04-06T00:28:25;2.00;;;1.90;;
75744;SDS011;64359;51.366;-0.222;2023-04-06T00:29:31;2.40;;;2.20;;
75744;SDS011;64359;51.366;-0.222;2023-04-06T00:30:35;1.90;;;1.80;;
75744;SDS011;64359;51.366;-0.222;2023-04-06T00:31:40;2.10;;;1.90;;
75744;SDS011;64359;51.366;-0.222;2023-04-06T00:32:44;1.80;;;1.70;;
75744;SDS011;64359;51.366;-0.222;2023-04-06T00:33:49;2.00;;;1.80;;
75744;SDS011;64359;51.366;-0.222;2023-04-06T00:34:53;2.10;;;2.00;;
75744;SDS011;64359;51.366;-0.222;2023-04-06T00:35:57;1.90;;;1.80;;
75744;SDS011;64359;51.366;-0.222;2023-04-06T00:37:02;2.20;;;2.00;;
75744;SDS011;64359;51.366;-0.222;2023-04-06T00:38:06;1.90;;;1.80;;
75744;SDS011;64359;51.366;-0.222;2023-04-06T00:39:11;1.80;;;1.70;;
75744;SDS011;64359;51.366;-0.222;2023-04-06T00:40:15;2.00;;;1.90;;
75744;SDS011;64359;51.366;-0.222;2023-04-06T00:41:20;2.30;;;2.20;;
75744;SDS011;64359;51.366;-0.222;2023-04-06T00:42:24;1.80;;;1.70;;
75744;SDS011;64359;51.366;-0.222;2023-04-06T00:43:28;1.80;;;1.70;;
75744;SDS011;64359;51.366;-0.222;2023-04-06T00:44:33;2.50;;;2.30;;
75744;SDS011;64359;51.366;-0.222;2023-04-06T00:45:38;2.00;;;1.90;;
75744;SDS011;64359;51.366;-0.222;2023-04-06T00:46:43;2.30;;;2.20;;
75744;SDS011;64359;51.366;-0.222;2023-04-06T00:47:48;2.20;;;2.10;;
75744;SDS011;64359;51.366;-0.222;2023-04-06T00:48:52;1.60;;;1.50;;
75744;SDS011;64359;51.366;-0.222;2023-04-06T00:49:56;2.40;;;2.20;;
75744;SDS011;64359;51.366;-0.222;2023-04-06T00:51:01;1.90;;;1.80;;
75744;SDS011;64359;51.366;-0.222;2023-04-06T00:52:06;1.70;;;1.60;;
75744;SDS011;64359;51.366;-0.222;2023-04-06T00:53:10;2.00;;;1.90;;
75744;SDS011;64359;51.366;-0.222;2023-04-06T00:54:14;1.90;;;1.80;;
75744;SDS011;64359;51.366;-0.222;2023-04-06T00:55:19;1.70;;;1.60;;
75744;SDS011;64359;51.366;-0.222;2023-04-06T00:56:23;1.90;;;1.80;;
75744;SDS011;64359;51.366;-0.222;2023-04-06T00:57:28;1.60;;;1.50;;
75744;SDS011;64359;51.366;-0.222;2023-04-06T00:58:33;1.70;;;1.60;;
75744;SDS011;64359;51.366;-0.222;2023-04-06T00:59:39;1.70;;;1.60;;
75744;SDS011;64359;51.366;-0.222;2023-04-06T01:00:43;1.50;;;1.40;;
75744;SDS011;64359;51.366;-0.222;2023-04-06T01:01:48;2.20;;;2.10;;
75744;SDS011;64359;51.366;-0.222;2023-04-06T01:02:52;2.30;;;2.20;;
75744;SDS011;64359;51.366;-0.222;2023-04-06T01:03:57;1.80;;;1.70;;
75744;SDS011;64359;51.366;-0.222;2023-04-06T01:05:04;1.60;;;1.50;;
75744;SDS011;64359;51.366;-0.222;2023-04-06T01:06:09;1.40;;;1.40;;
75744;SDS011;64359;51.366;-0.222;2023-04-06T01:07:14;2.10;;;2.00;;
75744;SDS011;64359;51.366;-0.222;2023-04-06T01:08:18;1.70;;;1.60;;
75744;SDS011;64359;51.366;-0.222;2023-04-06T01:09:23;2.20;;;2.00;;
75744;SDS011;64359;51.366;-0.222;2023-04-06T01:10:28;1.50;;;1.40;;
75744;SDS011;64359;51.366;-0.222;2023-04-06T01:11:32;1.70;;;1.60;;
75744;SDS011;64359;51.366;-0.222;2023-04-06T01:12:38;1.60;;;1.50;;
75744;SDS011;64359;51.366;-0.222;2023-04-06T01:13:42;1.60;;;1.50;;
75744;SDS011;64359;51.366;-0.222;2023-04-06T01:14:46;1.70;;;1.60;;
75744;SDS011;64359;51.366;-0.222;2023-04-06T01:15:51;1.90;;;1.80;;
75744;SDS011;64359;51.366;-0.222;2023-04-06T01:16:58;1.80;;;1.70;;
75744;SDS011;64359;51.366;-0.222;2023-04-06T01:18:02;1.70;;;1.60;;
75744;SDS011;64359;51.366;-0.222;2023-04-06T01:19:08;1.60;;;1.50;;
75744;SDS011;64359;51.366;-0.222;2023-04-06T01:20:14;1.20;;;1.20;;
75744;SDS011;64359;51.366;-0.222;2023-04-06T01:21:19;1.30;;;1.30;;
75744;SDS011;64359;51.366;-0.222;2023-04-06T01:22:24;1.30;;;1.30;;
75744;SDS011;64359;51.366;-0.222;2023-04-06T01:23:29;1.40;;;1.30;;
75744;SDS011;64359;51.366;-0.222;2023-04-06T01:24:33;1.50;;;1.40;;
75744;SDS011;64359;51.366;-0.222;2023-04-06T01:25:38;1.90;;;1.80;;
75744;SDS011;64359;51.366;-0.222;2023-04-06T01:26:42;1.70;;;1.60;;
75744;SDS011;64359;51.366;-0.222;2023-04-06T01:27:47;1.80;;;1.70;;
75744;SDS011;64359;51.366;-0.222;2023-04-06T01:28:52;1.60;;;1.50;;
75744;SDS011;64359;51.366;-0.222;2023-04-06T01:29:56;1.80;;;1.70;;
75744;SDS011;64359;51.366;-0.222;2023-04-06T01:31:01;1.50;;;1.40;;
75744;SDS011;64359;51.366;-0.222;2023-04-06T01:32:07;1.40;;;1.40;;
75744;SDS011;64359;51.366;-0.222;2023-04-06T01:33:11;1.40;;;1.40;;
75744;SDS011;64359;51.366;-0.222;2023-04-06T01:34:16;1.40;;;1.30;;
75744;SDS011;64359;51.366;-0.222;2023-04-06T01:35:20;1.60;;;1.50;;
75744;SDS011;64359;51.366;-0.222;2023-04-06T01:36:24;2.10;;;2.00;;
75744;SDS011;64359;51.366;-0.222;2023-04-06T01:37:29;1.80;;;1.70;;
75744;SDS011;64359;51.366;-0.222;2023-04-06T01:38:34;1.60;;;1.50;;
75744;SDS011;64359;51.366;-0.222;2023-04-06T01:39:38;1.40;;;1.30;;
75744;SDS011;64359;51.366;-0.222;2023-04-06T01:40:42;1.70;;;1.60;;
75744;SDS011;64359;51.366;-0.222;2023-04-06T01:41:47;2.60;;;1.40;;
75744;SDS011;64359;51.366;-0.222;2023-04-06T01:42:51;1.40;;;1.40;;
75744;SDS011;64359;51.366;-0.222;2023-04-06T01:43:56;2.00;;;1.90;;
75744;SDS011;64359;51.366;-0.222;2023-04-06T01:45:00;1.40;;;1.40;;
75744;SDS011;64359;51.366;-0.222;2023-04-06T01:46:04;1.50;;;1.40;;
75744;SDS011;64359;51.366;-0.222;2023-04-06T01:47:09;1.40;;;1.40;;
75744;SDS011;64359;51.366;-0.222;2023-04-06T01:48:13;1.80;;;1.70;;
75744;SDS011;64359;51.366;-0.222;2023-04-06T01:49:17;1.30;;;1.30;;
75744;SDS011;64359;51.366;-0.222;2023-04-06T01:50:22;1.80;;;1.70;;
75744;SDS011;64359;51.366;-0.222;2023-04-06T01:51:26;1.50;;;1.40;;
75744;SDS011;64359;51.366;-0.222;2023-04-06T01:52:31;1.10;;;1.10;;
75744;SDS011;64359;51.366;-0.222;2023-04-06T01:53:36;1.30;;;1.30;;
75744;SDS011;64359;51.366;-0.222;2023-04-06T01:54:40;1.70;;;1.60;;
75744;SDS011;64359;51.366;-0.222;2023-04-06T01:55:44;1.50;;;1.50;;
75744;SDS011;64359;51.366;-0.222;2023-04-06T01:56:49;1.50;;;1.40;;
75744;SDS011;64359;51.366;-0.222;2023-04-06T01:57:54;1.40;;;1.40;;
75744;SDS011;64359;51.366;-0.222;2023-04-06T01:58:58;1.30;;;1.20;;
75744;SDS011;64359;51.366;-0.222;2023-04-06T02:00:02;1.30;;;1.20;;
75744;SDS011;64359;51.366;-0.222;2023-04-06T02:01:08;1.20;;;1.20;;
75744;SDS011;64359;51.366;-0.222;2023-04-06T02:02:13;1.20;;;1.20;;
75744;SDS011;64359;51.366;-0.222;2023-04-06T02:03:17;1.30;;;1.10;;
75744;SDS011;64359;51.366;-0.222;2023-04-06T02:04:21;1.10;;;1.10;;
75744;SDS011;64359;51.366;-0.222;2023-04-06T02:05:26;1.20;;;1.20;;
75744;SDS011;64359;51.366;-0.222;2023-04-06T02:06:31;1.30;;;1.20;;
75744;SDS011;64359;51.366;-0.222;2023-04-06T02:07:36;1.10;;;1.10;;
75744;SDS011;64359;51.366;-0.222;2023-04-06T02:08:40;1.00;;;1.00;;
75744;SDS011;64359;51.366;-0.222;2023-04-06T02:09:45;1.20;;;1.20;;
75744;SDS011;64359;51.366;-0.222;2023-04-06T02:10:49;1.50;;;1.40;;
75744;SDS011;64359;51.366;-0.222;2023-04-06T02:11:53;1.40;;;1.40;;
75744;SDS011;64359;51.366;-0.222;2023-04-06T02:12:58;1.20;;;1.20;;
75744;SDS011;64359;51.366;-0.222;2023-04-06T02:14:02;1.10;;;1.10;;
75744;SDS011;64359;51.366;-0.222;2023-04-06T02:15:07;1.20;;;1.20;;
75744;SDS011;64359;51.366;-0.222;2023-04-06T02:16:14;1.30;;;1.20;;
75744;SDS011;64359;51.366;-0.222;2023-04-06T02:17:18;1.20;;;1.20;;
75744;SDS011;64359;51.366;-0.222;2023-04-06T02:18:23;1.40;;;1.20;;
75744;SDS011;64359;51.366;-0.222;2023-04-06T02:19:27;1.10;;;1.10;;
75744;SDS011;64359;51.366;-0.222;2023-04-06T02:20:31;1.00;;;1.00;;
75744;SDS011;64359;51.366;-0.222;2023-04-06T02:21:36;1.30;;;1.30;;
75744;SDS011;64359;51.366;-0.222;2023-04-06T02:22:40;1.20;;;1.20;;
75744;SDS011;64359;51.366;-0.222;2023-04-06T02:23:45;1.50;;;1.50;;
75744;SDS011;64359;51.366;-0.222;2023-04-06T02:24:50;1.00;;;1.00;;
75744;SDS011;64359;51.366;-0.222;2023-04-06T02:25:55;1.20;;;1.20;;
75744;SDS011;64359;51.366;-0.222;2023-04-06T02:26:59;1.10;;;1.10;;
75744;SDS011;64359;51.366;-0.222;2023-04-06T02:28:03;1.30;;;1.30;;
75744;SDS011;64359;51.366;-0.222;2023-04-06T02:29:08;1.10;;;1.10;;
75744;SDS011;64359;51.366;-0.222;2023-04-06T02:30:12;1.60;;;1.50;;
75744;SDS011;64359;51.366;-0.222;2023-04-06T02:31:17;1.60;;;1.60;;
75744;SDS011;64359;51.366;-0.222;2023-04-06T02:32:22;0.90;;;0.90;;
75744;SDS011;64359;51.366;-0.222;2023-04-06T02:33:26;1.20;;;1.20;;
75744;SDS011;64359;51.366;-0.222;2023-04-06T02:34:31;1.30;;;1.10;;
75744;SDS011;64359;51.366;-0.222;2023-04-06T02:35:35;1.00;;;1.00;;
75744;SDS011;64359;51.366;-0.222;2023-04-06T02:36:40;1.20;;;1.20;;
75744;SDS011;64359;51.366;-0.222;2023-04-06T02:37:44;1.20;;;1.20;;
75744;SDS011;64359;51.366;-0.222;2023-04-06T02:38:48;1.10;;;1.10;;
75744;SDS011;64359;51.366;-0.222;2023-04-06T02:39:53;1.40;;;1.30;;
75744;SDS011;64359;51.366;-0.222;2023-04-06T02:40:57;1.30;;;1.30;;
75744;SDS011;64359;51.366;-0.222;2023-04-06T02:42:01;1.10;;;1.10;;
75744;SDS011;64359;51.366;-0.222;2023-04-06T02:43:06;1.20;;;1.20;;
75744;SDS011;64359;51.366;-0.222;2023-04-06T02:44:10;1.20;;;1.20;;
75744;SDS011;64359;51.366;-0.222;2023-04-06T02:45:15;1.10;;;1.10;;
75744;SDS011;64359;51.366;-0.222;2023-04-06T02:46:19;1.30;;;1.30;;
75744;SDS011;64359;51.366;-0.222;2023-04-06T02:47:23;1.30;;;1.30;;
75744;SDS011;64359;51.366;-0.222;2023-04-06T02:48:28;1.10;;;1.10;;
75744;SDS011;64359;51.366;-0.222;2023-04-06T02:49:32;1.10;;;1.10;;
75744;SDS011;64359;51.366;-0.222;2023-04-06T02:50:36;1.00;;;1.00;;
75744;SDS011;64359;51.366;-0.222;2023-04-06T02:51:41;1.00;;;1.00;;
75744;SDS011;64359;51.366;-0.222;2023-04-06T02:52:45;1.00;;;1.00;;
75744;SDS011;64359;51.366;-0.222;2023-04-06T02:53:50;1.20;;;1.20;;
75744;SDS011;64359;51.366;-0.222;2023-04-06T02:54:54;1.50;;;1.40;;
75744;SDS011;64359;51.366;-0.222;2023-04-06T02:55:58;1.30;;;1.00;;
75744;SDS011;64359;51.366;-0.222;2023-04-06T02:57:03;1.20;;;1.20;;
75744;SDS011;64359;51.366;-0.222;2023-04-06T02:58:08;1.40;;;1.30;;
75744;SDS011;64359;51.366;-0.222;2023-04-06T02:59:12;1.30;;;1.30;;
75744;SDS011;64359;51.366;-0.222;2023-04-06T03:00:17;1.10;;;1.10;;
75744;SDS011;64359;51.366;-0.222;2023-04-06T03:01:22;1.10;;;1.10;;
75744;SDS011;64359;51.366;-0.222;2023-04-06T03:02:26;1.20;;;1.20;;
75744;SDS011;64359;51.366;-0.222;2023-04-06T03:03:31;1.10;;;1.10;;
75744;SDS011;64359;51.366;-0.222;2023-04-06T03:04:35;1.10;;;1.10;;
75744;SDS011;64359;51.366;-0.222;2023-04-06T03:05:40;0.90;;;0.90;;
75744;SDS011;64359;51.366;-0.222;2023-04-06T03:06:44;1.20;;;1.10;;
75744;SDS011;64359;51.366;-0.222;2023-04-06T03:07:48;1.00;;;1.00;;
75744;SDS011;64359;51.366;-0.222;2023-04-06T03:08:53;1.00;;;1.00;;
75744;SDS011;64359;51.366;-0.222;2023-04-06T03:09:57;1.00;;;1.00;;
75744;SDS011;64359;51.366;-0.222;2023-04-06T03:11:01;1.20;;;1.20;;
75744;SDS011;64359;51.366;-0.222;2023-04-06T03:12:06;1.10;;;1.10;;
75744;SDS011;64359;51.366;-0.222;2023-04-06T03:13:11;1.20;;;1.10;;
75744;SDS011;64359;51.366;-0.222;2023-04-06T03:14:15;1.10;;;1.10;;
75744;SDS011;64359;51.366;-0.222;2023-04-06T03:15:23;0.90;;;0.90;;
75744;SDS011;64359;51.366;-0.222;2023-04-06T03:16:27;1.00;;;1.00;;
75744;SDS011;64359;51.366;-0.222;2023-04-06T03:17:31;1.00;;;1.00;;
75744;SDS011;64359;51.366;-0.222;2023-04-06T03:18:36;1.00;;;1.00;;
75744;SDS011;64359;51.366;-0.222;2023-04-06T03:19:40;1.60;;;1.50;;
75744;SDS011;64359;51.366;-0.222;2023-04-06T03:20:44;0.80;;;0.80;;
75744;SDS011;64359;51.366;-0.222;2023-04-06T03:21:49;0.90;;;0.90;;
75744;SDS011;64359;51.366;-0.222;2023-04-06T03:22:53;1.00;;;1.00;;
75744;SDS011;64359;51.366;-0.222;2023-04-06T03:23:58;1.10;;;1.10;;
75744;SDS011;64359;51.366;-0.222;2023-04-06T03:25:02;1.50;;;1.40;;
75744;SDS011;64359;51.366;-0.222;2023-04-06T03:26:07;1.00;;;1.00;;
75744;SDS011;64359;51.366;-0.222;2023-04-06T03:27:12;1.50;;;1.50;;
75744;SDS011;64359;51.366;-0.222;2023-04-06T03:28:16;1.00;;;1.00;;
75744;SDS011;64359;51.366;-0.222;2023-04-06T03:29:20;1.60;;;1.30;;
75744;SDS011;64359;51.366;-0.222;2023-04-06T03:30:25;1.30;;;1.30;;
75744;SDS011;64359;51.366;-0.222;2023-04-06T03:31:29;1.40;;;1.40;;
75744;SDS011;64359;51.366;-0.222;2023-04-06T03:33:38;1.20;;;1.20;;
75744;SDS011;64359;51.366;-0.222;2023-04-06T03:34:42;1.10;;;1.10;;
75744;SDS011;64359;51.366;-0.222;2023-04-06T03:35:46;1.00;;;1.00;;
75744;SDS011;64359;51.366;-0.222;2023-04-06T03:36:50;0.80;;;0.80;;
75744;SDS011;64359;51.366;-0.222;2023-04-06T03:37:55;0.90;;;0.90;;
75744;SDS011;64359;51.366;-0.222;2023-04-06T03:39:00;1.30;;;1.30;;
75744;SDS011;64359;51.366;-0.222;2023-04-06T03:40:05;0.90;;;0.90;;
75744;SDS011;64359;51.366;-0.222;2023-04-06T03:41:10;1.10;;;1.10;;
75744;SDS011;64359;51.366;-0.222;2023-04-06T03:42:14;1.20;;;1.20;;
75744;SDS011;64359;51.366;-0.222;2023-04-06T03:43:18;1.10;;;1.10;;
75744;SDS011;64359;51.366;-0.222;2023-04-06T03:44:23;1.50;;;1.50;;
75744;SDS011;64359;51.366;-0.222;2023-04-06T03:45:27;1.20;;;1.20;;
75744;SDS011;64359;51.366;-0.222;2023-04-06T03:46:31;1.00;;;1.00;;
75744;SDS011;64359;51.366;-0.222;2023-04-06T03:47:36;1.20;;;1.20;;
75744;SDS011;64359;51.366;-0.222;2023-04-06T03:48:40;1.10;;;1.10;;
75744;SDS011;64359;51.366;-0.222;2023-04-06T03:49:45;0.90;;;0.90;;
75744;SDS011;64359;51.366;-0.222;2023-04-06T03:50:49;0.90;;;0.90;;
75744;SDS011;64359;51.366;-0.222;2023-04-06T03:51:53;0.70;;;0.70;;
75744;SDS011;64359;51.366;-0.222;2023-04-06T03:52:58;0.80;;;0.80;;
75744;SDS011;64359;51.366;-0.222;2023-04-06T03:54:04;1.00;;;1.00;;
75744;SDS011;64359;51.366;-0.222;2023-04-06T03:55:09;1.00;;;1.00;;
75744;SDS011;64359;51.366;-0.222;2023-04-06T03:56:13;0.80;;;0.80;;
75744;SDS011;64359;51.366;-0.222;2023-04-06T03:57:17;0.70;;;0.70;;
75744;SDS011;64359;51.366;-0.222;2023-04-06T03:58:22;0.80;;;0.80;;
75744;SDS011;64359;51.366;-0.222;2023-04-06T03:59:26;0.90;;;0.90;;
75744;SDS011;64359;51.366;-0.222;2023-04-06T04:00:30;1.20;;;1.20;;
75744;SDS011;64359;51.366;-0.222;2023-04-06T04:01:35;0.90;;;0.90;;
75744;SDS011;64359;51.366;-0.222;2023-04-06T04:02:40;0.80;;;0.80;;
75744;SDS011;64359;51.366;-0.222;2023-04-06T04:03:44;0.70;;;0.70;;
75744;SDS011;64359;51.366;-0.222;2023-04-06T04:04:49;0.70;;;0.70;;
75744;SDS011;64359;51.366;-0.222;2023-04-06T04:05:53;0.70;;;0.70;;
75744;SDS011;64359;51.366;-0.222;2023-04-06T04:06:58;1.20;;;1.20;;
75744;SDS011;64359;51.366;-0.222;2023-04-06T04:08:02;0.70;;;0.70;;
75744;SDS011;64359;51.366;-0.222;2023-04-06T04:09:06;0.90;;;0.90;;
75744;SDS011;64359;51.366;-0.222;2023-04-06T04:10:11;0.70;;;0.70;;
75744;SDS011;64359;51.366;-0.222;2023-04-06T04:11:15;0.70;;;0.70;;
75744;SDS011;64359;51.366;-0.222;2023-04-06T04:12:20;0.60;;;0.60;;
75744;SDS011;64359;51.366;-0.222;2023-04-06T04:13:24;0.80;;;0.80;;
75744;SDS011;64359;51.366;-0.222;2023-04-06T04:14:28;1.00;;;1.00;;
75744;SDS011;64359;51.366;-0.222;2023-04-06T04:15:33;0.70;;;0.70;;
75744;SDS011;64359;51.366;-0.222;2023-04-06T04:16:37;0.80;;;0.80;;
75744;SDS011;64359;51.366;-0.222;2023-04-06T04:17:43;1.20;;;1.10;;
75744;SDS011;64359;51.366;-0.222;2023-04-06T04:18:48;0.80;;;0.80;;
75744;SDS011;64359;51.366;-0.222;2023-04-06T04:19:52;0.80;;;0.80;;
75744;SDS011;64359;51.366;-0.222;2023-04-06T04:20:56;0.80;;;0.80;;
75744;SDS011;64359;51.366;-0.222;2023-04-06T04:22:01;0.90;;;0.90;;
75744;SDS011;64359;51.366;-0.222;2023-04-06T04:23:07;0.90;;;0.90;;
75744;SDS011;64359;51.366;-0.222;2023-04-06T04:24:12;0.70;;;0.70;;
75744;SDS011;64359;51.366;-0.222;2023-04-06T04:25:16;1.00;;;1.00;;
75744;SDS011;64359;51.366;-0.222;2023-04-06T04:26:21;0.90;;;0.90;;
75744;SDS011;64359;51.366;-0.222;2023-04-06T04:27:26;0.70;;;0.70;;
75744;SDS011;64359;51.366;-0.222;2023-04-06T04:28:30;0.90;;;0.90;;
75744;SDS011;64359;51.366;-0.222;2023-04-06T04:29:34;0.70;;;0.70;;
75744;SDS011;64359;51.366;-0.222;2023-04-06T04:30:39;1.00;;;1.00;;
75744;SDS011;64359;51.366;-0.222;2023-04-06T04:31:43;0.90;;;0.90;;
75744;SDS011;64359;51.366;-0.222;2023-04-06T04:32:48;0.80;;;0.80;;
75744;SDS011;64359;51.366;-0.222;2023-04-06T04:33:52;0.50;;;0.50;;
75744;SDS011;64359;51.366;-0.222;2023-04-06T04:34:56;0.80;;;0.80;;
75744;SDS011;64359;51.366;-0.222;2023-04-06T04:36:01;0.70;;;0.70;;
75744;SDS011;64359;51.366;-0.222;2023-04-06T04:37:05;1.20;;;1.20;;
75744;SDS011;64359;51.366;-0.222;2023-04-06T04:38:10;1.30;;;1.30;;
75744;SDS011;64359;51.366;-0.222;2023-04-06T04:39:14;0.70;;;0.70;;
75744;SDS011;64359;51.366;-0.222;2023-04-06T04:40:18;1.20;;;1.20;;
75744;SDS011;64359;51.366;-0.222;2023-04-06T04:41:23;0.80;;;0.80;;
75744;SDS011;64359;51.366;-0.222;2023-04-06T04:42:27;1.00;;;1.00;;
75744;SDS011;64359;51.366;-0.222;2023-04-06T04:43:32;0.70;;;0.70;;
75744;SDS011;64359;51.366;-0.222;2023-04-06T04:44:36;0.90;;;0.90;;
75744;SDS011;64359;51.366;-0.222;2023-04-06T04:45:40;0.80;;;0.80;;
75744;SDS011;64359;51.366;-0.222;2023-04-06T04:46:45;0.80;;;0.80;;
75744;SDS011;64359;51.366;-0.222;2023-04-06T04:47:49;0.90;;;0.90;;
75744;SDS011;64359;51.366;-0.222;2023-04-06T04:48:53;0.80;;;0.80;;
75744;SDS011;64359;51.366;-0.222;2023-04-06T04:49:58;0.90;;;0.60;;
75744;SDS011;64359;51.366;-0.222;2023-04-06T04:51:03;0.90;;;0.90;;
75744;SDS011;64359;51.366;-0.222;2023-04-06T04:52:08;0.70;;;0.70;;
75744;SDS011;64359;51.366;-0.222;2023-04-06T04:53:12;1.00;;;1.00;;
75744;SDS011;64359;51.366;-0.222;2023-04-06T04:54:17;0.70;;;0.70;;
75744;SDS011;64359;51.366;-0.222;2023-04-06T04:55:21;0.80;;;0.80;;
75744;SDS011;64359;51.366;-0.222;2023-04-06T04:56:26;0.70;;;0.70;;
75744;SDS011;64359;51.366;-0.222;2023-04-06T04:57:31;0.70;;;0.70;;
75744;SDS011;64359;51.366;-0.222;2023-04-06T04:58:35;0.90;;;0.90;;
75744;SDS011;64359;51.366;-0.222;2023-04-06T04:59:42;0.70;;;0.70;;
75744;SDS011;64359;51.366;-0.222;2023-04-06T05:00:52;0.70;;;0.70;;
75744;SDS011;64359;51.366;-0.222;2023-04-06T05:01:56;0.60;;;0.60;;
75744;SDS011;64359;51.366;-0.222;2023-04-06T05:03:01;0.80;;;0.80;;
75744;SDS011;64359;51.366;-0.222;2023-04-06T05:04:06;0.70;;;0.70;;
75744;SDS011;64359;51.366;-0.222;2023-04-06T05:05:11;0.80;;;0.80;;
75744;SDS011;64359;51.366;-0.222;2023-04-06T05:06:15;0.60;;;0.60;;
75744;SDS011;64359;51.366;-0.222;2023-04-06T05:07:20;0.60;;;0.60;;
75744;SDS011;64359;51.366;-0.222;2023-04-06T05:08:25;0.90;;;0.90;;
75744;SDS011;64359;51.366;-0.222;2023-04-06T05:09:30;0.70;;;0.70;;
75744;SDS011;64359;51.366;-0.222;2023-04-06T05:10:34;1.10;;;1.10;;
75744;SDS011;64359;51.366;-0.222;2023-04-06T05:11:39;0.70;;;0.70;;
75744;SDS011;64359;51.366;-0.222;2023-04-06T05:12:43;1.20;;;1.20;;
75744;SDS011;64359;51.366;-0.222;2023-04-06T05:13:47;0.80;;;0.80;;
75744;SDS011;64359;51.366;-0.222;2023-04-06T05:14:52;0.80;;;0.80;;
75744;SDS011;64359;51.366;-0.222;2023-04-06T05:15:57;0.90;;;0.70;;
75744;SDS011;64359;51.366;-0.222;2023-04-06T05:17:01;0.90;;;0.90;;
75744;SDS011;64359;51.366;-0.222;2023-04-06T05:18:06;0.90;;;0.90;;
75744;SDS011;64359;51.366;-0.222;2023-04-06T05:19:10;1.00;;;1.00;;
75744;SDS011;64359;51.366;-0.222;2023-04-06T05:20:15;0.70;;;0.70;;
75744;SDS011;64359;51.366;-0.222;2023-04-06T05:21:19;0.70;;;0.70;;
75744;SDS011;64359;51.366;-0.222;2023-04-06T05:22:24;0.60;;;0.60;;
75744;SDS011;64359;51.366;-0.222;2023-04-06T05:23:28;0.80;;;0.80;;
75744;SDS011;64359;51.366;-0.222;2023-04-06T05:24:33;0.80;;;0.80;;
75744;SDS011;64359;51.366;-0.222;2023-04-06T05:25:37;0.90;;;0.90;;
75744;SDS011;64359;51.366;-0.222;2023-04-06T05:26:42;0.60;;;0.60;;
75744;SDS011;64359;51.366;-0.222;2023-04-06T05:27:46;0.70;;;0.70;;
75744;SDS011;64359;51.366;-0.222;2023-04-06T05:28:51;4.30;;;0.90;;
75744;SDS011;64359;51.366;-0.222;2023-04-06T05:29:56;0.70;;;0.70;;
75744;SDS011;64359;51.366;-0.222;2023-04-06T05:31:00;0.70;;;0.70;;
75744;SDS011;64359;51.366;-0.222;2023-04-06T05:32:05;0.90;;;0.90;;
75744;SDS011;64359;51.366;-0.222;2023-04-06T05:33:10;0.60;;;0.60;;
75744;SDS011;64359;51.366;-0.222;2023-04-06T05:34:14;0.90;;;0.90;;
75744;SDS011;64359;51.366;-0.222;2023-04-06T05:35:19;1.20;;;1.20;;
75744;SDS011;64359;51.366;-0.222;2023-04-06T05:36:23;0.90;;;0.90;;
75744;SDS011;64359;51.366;-0.222;2023-04-06T05:37:28;1.10;;;1.10;;
75744;SDS011;64359;51.366;-0.222;2023-04-06T05:38:32;0.90;;;0.90;;
75744;SDS011;64359;51.366;-0.222;2023-04-06T05:39:37;1.00;;;0.90;;
75744;SDS011;64359;51.366;-0.222;2023-04-06T05:40:41;1.30;;;1.00;;
75744;SDS011;64359;51.366;-0.222;2023-04-06T05:41:46;0.90;;;0.90;;
75744;SDS011;64359;51.366;-0.222;2023-04-06T05:42:50;1.40;;;1.10;;
75744;SDS011;64359;51.366;-0.222;2023-04-06T05:43:55;1.70;;;1.50;;
75744;SDS011;64359;51.366;-0.222;2023-04-06T05:45:00;2.00;;;1.30;;
75744;SDS011;64359;51.366;-0.222;2023-04-06T05:46:04;1.70;;;1.10;;
75744;SDS011;64359;51.366;-0.222;2023-04-06T05:47:09;1.70;;;1.50;;
75744;SDS011;64359;51.366;-0.222;2023-04-06T05:48:14;1.00;;;0.90;;
75744;SDS011;64359;51.366;-0.222;2023-04-06T05:49:18;2.50;;;1.10;;
75744;SDS011;64359;51.366;-0.222;2023-04-06T05:50:22;1.50;;;1.20;;
75744;SDS011;64359;51.366;-0.222;2023-04-06T05:51:27;2.20;;;1.30;;
75744;SDS011;64359;51.366;-0.222;2023-04-06T05:52:31;2.00;;;1.40;;
75744;SDS011;64359;51.366;-0.222;2023-04-06T05:53:36;2.50;;;1.10;;
75744;SDS011;64359;51.366;-0.222;2023-04-06T05:54:40;2.30;;;1.30;;
75744;SDS011;64359;51.366;-0.222;2023-04-06T05:55:45;1.80;;;1.10;;
75744;SDS011;64359;51.366;-0.222;2023-04-06T05:56:49;2.60;;;1.40;;
75744;SDS011;64359;51.366;-0.222;2023-04-06T05:57:54;2.70;;;1.50;;
75744;SDS011;64359;51.366;-0.222;2023-04-06T05:58:58;1.80;;;1.20;;
75744;SDS011;64359;51.366;-0.222;2023-04-06T06:00:03;4.10;;;2.10;;
75744;SDS011;64359;51.366;-0.222;2023-04-06T06:01:11;2.10;;;1.30;;
75744;SDS011;64359;51.366;-0.222;2023-04-06T06:02:15;4.10;;;1.50;;
75744;SDS011;64359;51.366;-0.222;2023-04-06T06:03:20;1.90;;;1.10;;
75744;SDS011;64359;51.366;-0.222;2023-04-06T06:04:25;2.20;;;1.30;;
75744;SDS011;64359;51.366;-0.222;2023-04-06T06:05:29;3.60;;;1.40;;
75744;SDS011;64359;51.366;-0.222;2023-04-06T06:06:34;3.30;;;1.70;;
75744;SDS011;64359;51.366;-0.222;2023-04-06T06:07:39;2.50;;;1.50;;
75744;SDS011;64359;51.366;-0.222;2023-04-06T06:08:43;3.60;;;1.70;;
75744;SDS011;64359;51.366;-0.222;2023-04-06T06:09:48;2.20;;;1.60;;
75744;SDS011;64359;51.366;-0.222;2023-04-06T06:10:52;2.80;;;1.80;;
75744;SDS011;64359;51.366;-0.222;2023-04-06T06:11:59;3.40;;;1.80;;
75744;SDS011;64359;51.366;-0.222;2023-04-06T06:13:04;2.00;;;1.30;;
75744;SDS011;64359;51.366;-0.222;2023-04-06T06:14:08;3.20;;;1.70;;
75744;SDS011;64359;51.366;-0.222;2023-04-06T06:15:12;3.40;;;1.60;;
75744;SDS011;64359;51.366;-0.222;2023-04-06T06:16:18;1.50;;;1.30;;
75744;SDS011;64359;51.366;-0.222;2023-04-06T06:17:22;2.00;;;1.30;;
75744;SDS011;64359;51.366;-0.222;2023-04-06T06:18:27;2.90;;;1.50;;
75744;SDS011;64359;51.366;-0.222;2023-04-06T06:19:31;3.20;;;1.60;;
75744;SDS011;64359;51.366;-0.222;2023-04-06T06:20:36;2.50;;;1.60;;
75744;SDS011;64359;51.366;-0.222;2023-04-06T06:21:41;2.30;;;1.80;;
75744;SDS011;64359;51.366;-0.222;2023-04-06T06:22:45;1.70;;;1.30;;
75744;SDS011;64359;51.366;-0.222;2023-04-06T06:23:49;2.40;;;1.60;;